KFYM/FYM METAR and TAF weather

Enter ICAO airport designator
Station Type Date Time Source
KFYM METAR 2019/06/18 04:35 UTC NOAA

KFYM 180435Z AUTO 05003KT 10SM FEW035 SCT043 22/20 A3003 RMK A01


Station Type Date Time Source
KFYM Decoded METAR 2019/06/18 04:35 UTC NOAA

Station name not available
Jun 18, 2019 - 12:35 AM EDT / 2019.06.18 0435 UTC
Wind: from the NE (050 degrees) at 3 MPH (3 KT):0
Visibility: 10 mile(s):0
Sky conditions: partly cloudy
Temperature: 71 F (22 C)
Dew Point: 68 F (20 C)
Relative Humidity: 88%
Pressure (altimeter): 30.03 in. Hg (1016 hPa)
ob: KFYM 180435Z AUTO 05003KT 10SM FEW035 SCT043 22/20 A3003 RMK A01
cycle: 4

Station Type Date Time Source
KFYM TAF 2009/08/31 19:45 UTC NOAA

METAR KFYM 311945Z AUTO 01006KT 10SM CLR 26/11 A3009
RMK AO1 T02550111 $

Example: see airport list